createdAt,value
2019-02-07T00:00:48.240Z,4.50
2019-02-07T00:03:15.281Z,4.69
2019-02-07T00:05:42.321Z,4.87
2019-02-07T00:08:09.352Z,4.56
2019-02-07T00:10:36.358Z,4.62
2019-02-07T00:13:03.358Z,4.44
2019-02-07T00:15:30.487Z,4.50
2019-02-07T00:17:57.493Z,4.69
2019-02-07T00:20:24.520Z,4.19
2019-02-07T00:22:51.530Z,4.12
2019-02-07T00:25:18.711Z,4.31
2019-02-07T00:27:45.702Z,4.31
2019-02-07T00:30:13.958Z,4.12
2019-02-07T00:32:41.018Z,4.12
2019-02-07T00:35:08.673Z,4.06
2019-02-07T00:37:35.671Z,4.25
2019-02-07T00:40:02.748Z,4.50
2019-02-07T00:42:29.785Z,4.06
2019-02-07T00:44:56.773Z,3.94
2019-02-07T00:47:24.699Z,4.06
2019-02-07T00:49:51.651Z,4.06
2019-02-07T00:52:18.631Z,4.00
2019-02-07T00:54:45.607Z,4.06
2019-02-07T00:57:12.567Z,4.19
2019-02-07T00:59:39.607Z,3.81
2019-02-07T01:02:06.605Z,3.94
2019-02-07T01:04:33.638Z,4.00
2019-02-07T01:07:00.586Z,3.81
2019-02-07T01:09:27.590Z,3.94
2019-02-07T01:11:55.402Z,3.62
2019-02-07T01:14:22.394Z,3.87
2019-02-07T01:16:49.333Z,3.75
2019-02-07T01:19:16.464Z,3.75
2019-02-07T01:21:43.531Z,3.62
2019-02-07T01:24:10.558Z,4.06
2019-02-07T01:26:37.536Z,3.56
2019-02-07T01:29:04.539Z,3.81
2019-02-07T01:31:31.532Z,3.50
2019-02-07T01:33:58.955Z,3.62
2019-02-07T01:36:26.009Z,3.50
2019-02-07T01:38:52.987Z,3.44
2019-02-07T01:41:20.024Z,3.31
2019-02-07T01:43:47.007Z,3.81
2019-02-07T01:46:14.009Z,3.75
2019-02-07T01:48:41.069Z,3.62
2019-02-07T01:51:08.062Z,3.56
2019-02-07T01:53:35.030Z,3.62
2019-02-07T01:56:01.986Z,3.44
2019-02-07T01:58:29.542Z,3.31
2019-02-07T02:00:56.924Z,3.62
2019-02-07T02:03:24.778Z,3.56
2019-02-07T02:05:51.732Z,3.44
2019-02-07T02:08:18.728Z,3.44
2019-02-07T02:10:45.705Z,3.69
2019-02-07T02:13:12.629Z,3.37
2019-02-07T02:15:39.666Z,3.44
2019-02-07T02:18:06.655Z,3.50
2019-02-07T02:20:33.617Z,3.44
2019-02-07T02:23:00.563Z,3.25
2019-02-07T02:25:27.698Z,3.31
2019-02-07T02:27:54.675Z,3.25
2019-02-07T02:30:24.018Z,3.44
2019-02-07T02:32:51.055Z,3.31
2019-02-07T02:35:18.053Z,3.37
2019-02-07T02:37:45.005Z,3.62
2019-02-07T02:40:12.070Z,3.31
2019-02-07T02:42:39.075Z,3.37
2019-02-07T02:45:07.285Z,3.25
2019-02-07T02:47:34.250Z,3.19
2019-02-07T02:50:01.194Z,3.25
2019-02-07T02:52:28.223Z,3.00
2019-02-07T02:54:56.548Z,3.31
2019-02-07T02:57:23.533Z,3.19
2019-02-07T02:59:50.485Z,3.25
2019-02-07T03:02:23.129Z,3.31
2019-02-07T03:05:01.743Z,3.06
2019-02-07T03:07:33.462Z,3.06
2019-02-07T03:10:05.159Z,2.94
2019-02-07T03:12:37.990Z,3.06
2019-02-07T03:15:11.679Z,3.06
2019-02-07T03:19:52.285Z,2.94
2019-02-07T03:23:22.442Z,3.06
2019-02-07T03:25:54.098Z,3.00
2019-02-07T03:30:30.083Z,3.00
2019-02-07T03:33:02.902Z,2.94
2019-02-07T03:35:36.951Z,2.87
2019-02-07T03:38:15.652Z,2.56
2019-02-07T03:40:49.233Z,2.69
2019-02-07T03:43:26.714Z,2.75
2019-02-07T03:46:02.854Z,3.12
2019-02-07T03:48:31.279Z,2.75
2019-02-07T03:51:07.907Z,2.75
2019-02-07T03:54:39.098Z,2.56
2019-02-07T03:57:10.713Z,2.50
2019-02-07T03:59:42.307Z,2.56
2019-02-07T04:02:20.899Z,2.94
2019-02-07T04:04:53.345Z,2.69
2019-02-07T04:07:25.966Z,2.50
2019-02-07T04:10:06.531Z,2.37
2019-02-07T04:13:39.089Z,2.62
2019-02-07T04:16:15.113Z,2.50
2019-02-07T04:19:15.770Z,2.62
2019-02-07T04:21:48.722Z,2.25
2019-02-07T04:24:21.380Z,2.50
2019-02-07T04:26:52.948Z,2.37
2019-02-07T04:29:31.451Z,2.44
2019-02-07T04:32:08.011Z,2.50
2019-02-07T04:36:43.141Z,2.44
2019-02-07T04:39:19.174Z,2.37
2019-02-07T04:41:51.993Z,2.37
2019-02-07T04:44:28.685Z,2.44
2019-02-07T04:48:01.055Z,2.37
2019-02-07T04:50:40.674Z,2.44
2019-02-07T04:53:17.130Z,2.12
2019-02-07T04:56:04.900Z,2.00
2019-02-07T04:58:37.529Z,2.19
2019-02-07T05:01:10.022Z,2.31
2019-02-07T05:03:50.668Z,2.31
2019-02-07T05:06:23.228Z,2.12
2019-02-07T05:08:54.795Z,2.31
2019-02-07T05:11:27.372Z,2.25
2019-02-07T05:15:02.723Z,2.25
2019-02-07T05:18:39.061Z,2.37
2019-02-07T05:21:10.679Z,2.31
2019-02-07T05:23:45.111Z,2.12
2019-02-07T05:26:17.804Z,2.19
2019-02-07T05:28:49.413Z,2.31
2019-02-07T05:31:55.302Z,2.06
2019-02-07T05:34:27.936Z,2.12
2019-02-07T05:36:59.566Z,2.06
2019-02-07T05:39:34.223Z,2.06
2019-02-07T05:42:25.877Z,2.06
2019-02-07T05:44:58.620Z,2.12
2019-02-07T05:47:34.101Z,2.06
2019-02-07T05:50:08.649Z,2.00
2019-02-07T05:52:46.178Z,2.12
2019-02-07T05:55:20.650Z,2.12
2019-02-07T05:57:59.150Z,1.87
2019-02-07T06:00:33.778Z,2.25
2019-02-07T06:04:13.640Z,2.00
2019-02-07T06:06:51.286Z,1.81
2019-02-07T06:09:22.935Z,1.94
2019-02-07T06:11:55.390Z,1.69
2019-02-07T06:14:28.019Z,2.06
2019-02-07T06:17:02.712Z,1.81
2019-02-07T06:19:32.423Z,1.81
2019-02-07T06:22:06.827Z,2.12
2019-02-07T06:24:39.424Z,2.12
2019-02-07T06:29:18.452Z,1.81
2019-02-07T06:31:51.987Z,2.25
2019-02-07T06:34:28.979Z,1.94
2019-02-07T06:36:59.301Z,2.06
2019-02-07T06:39:34.993Z,2.25
2019-02-07T06:42:09.476Z,2.12
2019-02-07T06:44:44.008Z,2.31
2019-02-07T06:47:16.538Z,2.19
2019-02-07T06:51:53.549Z,2.31
2019-02-07T06:55:24.727Z,2.12
2019-02-07T06:59:02.223Z,1.94
2019-02-07T07:01:33.925Z,2.25
2019-02-07T07:04:10.473Z,2.12
2019-02-07T07:06:45.092Z,2.19
2019-02-07T07:09:25.648Z,2.31
2019-02-07T07:11:59.230Z,2.25
2019-02-07T07:14:40.858Z,2.50
2019-02-07T07:17:24.539Z,2.50
2019-02-07T07:19:51.132Z,2.56
2019-02-07T07:23:24.150Z,2.62
2019-02-07T07:26:55.729Z,2.56
2019-02-07T07:29:28.407Z,2.25
2019-02-07T07:32:03.937Z,2.31
2019-02-07T07:34:36.639Z,2.50
2019-02-07T07:37:08.326Z,2.62
2019-02-07T07:39:40.985Z,2.44
2019-02-07T07:42:26.824Z,2.44
2019-02-07T07:45:10.863Z,2.56
2019-02-07T07:47:43.715Z,2.31
2019-02-07T07:50:23.417Z,2.44
2019-02-07T07:52:57.462Z,2.75
2019-02-07T07:55:30.393Z,2.37
2019-02-07T07:58:06.736Z,2.69
2019-02-07T08:00:40.431Z,2.19
2019-02-07T08:03:13.984Z,2.31
2019-02-07T08:05:49.284Z,2.25
2019-02-07T08:08:24.896Z,2.44
2019-02-07T08:10:59.644Z,2.44
2019-02-07T08:13:32.519Z,2.50
2019-02-07T08:16:07.154Z,2.44
2019-02-07T08:19:00.191Z,2.69
2019-02-07T08:21:33.050Z,2.62
2019-02-07T08:24:09.732Z,2.44
2019-02-07T08:26:41.375Z,3.00
2019-02-07T08:29:15.910Z,3.00
2019-02-07T08:31:49.493Z,2.75
2019-02-07T08:34:26.834Z,3.00
2019-02-07T08:37:58.233Z,2.81
2019-02-07T08:40:31.607Z,2.69
2019-02-07T08:43:09.261Z,2.31
2019-02-07T08:45:48.367Z,2.75
2019-02-07T08:49:19.808Z,3.00
2019-02-07T08:53:57.833Z,2.87
2019-02-07T08:56:31.430Z,3.12
2019-02-07T08:59:08.182Z,3.19
2019-02-07T09:01:39.988Z,3.06
2019-02-07T09:04:26.421Z,3.12
2019-02-07T09:06:58.018Z,3.12
2019-02-07T09:09:29.691Z,3.37
2019-02-07T09:12:01.281Z,3.12
2019-02-07T09:16:36.222Z,3.19
2019-02-07T09:19:09.042Z,3.37
2019-02-07T09:21:41.802Z,2.94
2019-02-07T09:24:14.313Z,3.12
2019-02-07T09:26:47.070Z,3.37
2019-02-07T09:29:19.841Z,3.19
2019-02-07T09:32:51.184Z,3.44
2019-02-07T09:35:29.383Z,3.56
2019-02-07T09:38:01.126Z,3.62
2019-02-07T09:40:50.886Z,3.75
2019-02-07T09:45:25.825Z,3.62
2019-02-07T09:48:01.402Z,3.87
2019-02-07T09:50:34.985Z,4.00
2019-02-07T09:53:06.754Z,3.87
2019-02-07T09:55:51.368Z,3.81
2019-02-07T09:58:30.701Z,3.56
2019-02-07T10:01:03.205Z,3.87
2019-02-07T10:03:47.215Z,3.81
2019-02-07T10:06:19.909Z,4.00
2019-02-07T10:08:53.491Z,3.75
2019-02-07T10:13:31.399Z,3.87
2019-02-07T10:16:03.869Z,3.81
2019-02-07T10:18:43.546Z,3.94
2019-02-07T10:21:16.851Z,3.87
2019-02-07T10:23:51.524Z,3.87
2019-02-07T10:26:24.303Z,4.19
2019-02-07T10:29:56.726Z,4.19
2019-02-07T10:34:33.916Z,3.87
2019-02-07T10:37:10.626Z,4.12
2019-02-07T10:39:55.632Z,4.00
2019-02-07T10:42:36.783Z,4.31
2019-02-07T10:45:14.353Z,4.12
2019-02-07T10:47:47.113Z,4.25
2019-02-07T10:51:19.425Z,4.37
2019-02-07T10:53:55.095Z,4.44
2019-02-07T10:57:26.263Z,4.31
2019-02-07T11:00:15.094Z,4.69
2019-02-07T11:02:47.715Z,4.62
2019-02-07T11:05:20.506Z,4.37
2019-02-07T11:07:56.647Z,4.44
2019-02-07T11:21:35.023Z,5.06
2019-02-07T11:29:51.623Z,5.31
2019-02-07T11:32:27.963Z,5.56
2019-02-07T11:37:06.891Z,5.94
2019-02-07T11:45:45.006Z,5.75
2019-02-07T11:50:23.212Z,5.69
2019-02-07T11:52:59.688Z,6.06
2019-02-07T11:57:36.888Z,5.87
2019-02-07T12:00:14.376Z,5.87
2019-02-07T12:02:46.778Z,6.06
2019-02-07T12:05:20.424Z,6.12
2019-02-07T12:08:52.349Z,5.81
2019-02-07T12:11:25.784Z,6.25
2019-02-07T12:14:03.974Z,6.44
2019-02-07T12:16:38.857Z,6.12
2019-02-07T12:19:30.268Z,6.31
2019-02-07T12:22:03.991Z,6.06
2019-02-07T12:24:37.767Z,6.19
2019-02-07T12:28:08.392Z,6.37
2019-02-07T12:30:57.745Z,6.06
2019-02-07T12:33:33.389Z,6.50
2019-02-07T12:36:17.247Z,6.50
2019-02-07T12:39:51.935Z,6.56
2019-02-07T12:42:30.651Z,6.12
2019-02-07T12:45:04.555Z,6.50
2019-02-07T12:49:41.727Z,6.50
2019-02-07T12:52:18.804Z,6.06
2019-02-07T12:54:56.572Z,6.25
2019-02-07T12:57:33.263Z,6.37
2019-02-07T13:00:06.407Z,6.37
2019-02-07T13:03:42.568Z,6.50
2019-02-07T13:07:13.040Z,6.56
2019-02-07T13:09:49.909Z,6.25
2019-02-07T13:12:22.805Z,6.31
2019-02-07T13:14:55.955Z,6.06
2019-02-07T13:17:27.863Z,6.19
2019-02-07T13:20:07.514Z,6.12
2019-02-07T13:22:41.811Z,6.25
2019-02-07T13:25:18.055Z,6.56
2019-02-07T13:27:52.602Z,6.37
2019-02-07T13:30:56.726Z,6.19
2019-02-07T13:34:29.186Z,6.31
2019-02-07T13:37:00.827Z,6.06
2019-02-07T13:39:37.639Z,6.31
2019-02-07T13:44:16.202Z,6.19
2019-02-07T13:46:49.668Z,6.12
2019-02-07T13:50:26.118Z,5.94
2019-02-07T13:53:15.829Z,6.12
2019-02-07T13:55:57.539Z,6.37
2019-02-07T13:59:28.370Z,6.12
2019-02-07T14:04:03.295Z,5.94
2019-02-07T14:07:35.723Z,5.94
2019-02-07T14:11:08.151Z,5.94
2019-02-07T14:13:41.200Z,5.94
2019-02-07T14:17:14.702Z,6.37
2019-02-07T14:19:48.174Z,6.06
2019-02-07T14:22:20.876Z,6.00
2019-02-07T14:24:52.498Z,5.94
2019-02-07T14:27:25.078Z,5.69
2019-02-07T14:29:58.585Z,5.94
2019-02-07T14:32:35.142Z,5.94
2019-02-07T14:35:08.058Z,6.25
2019-02-07T14:37:41.614Z,6.06
2019-02-07T14:40:15.066Z,5.81
2019-02-07T14:42:47.854Z,5.44
2019-02-07T14:45:21.230Z,5.62
2019-02-07T14:47:48.317Z,5.56
2019-02-07T14:50:15.658Z,5.69
2019-02-07T14:52:42.989Z,5.69
2019-02-07T14:55:10.201Z,6.00
2019-02-07T14:57:37.181Z,5.62
2019-02-07T15:00:07.443Z,5.50
2019-02-07T15:02:34.522Z,5.81
2019-02-07T15:05:03.022Z,5.62
2019-02-07T15:07:30.497Z,5.62
2019-02-07T15:09:57.673Z,5.81
2019-02-07T15:12:24.892Z,5.75
2019-02-07T15:14:52.286Z,5.81
2019-02-07T15:17:20.320Z,5.69
2019-02-07T15:19:47.769Z,5.62
2019-02-07T15:22:14.986Z,5.87
2019-02-07T15:24:42.527Z,5.75
2019-02-07T15:27:10.057Z,6.12
2019-02-07T15:29:37.655Z,5.56
2019-02-07T15:32:05.013Z,5.87
2019-02-07T15:34:32.331Z,5.81
2019-02-07T15:36:59.615Z,5.87
2019-02-07T15:39:26.927Z,5.62
2019-02-07T15:41:54.430Z,5.69
2019-02-07T15:44:21.775Z,5.56
2019-02-07T15:46:49.147Z,5.94
2019-02-07T15:49:16.400Z,5.62
2019-02-07T15:51:43.848Z,5.94
2019-02-07T15:54:11.246Z,5.56
2019-02-07T15:56:38.548Z,5.69
2019-02-07T15:59:31.041Z,5.62
2019-02-07T16:02:04.411Z,5.44
2019-02-07T16:04:36.156Z,5.50
2019-02-07T16:07:03.451Z,5.87
2019-02-07T16:09:31.256Z,5.56
2019-02-07T16:11:58.457Z,5.31
2019-02-07T16:14:26.299Z,5.25
2019-02-07T16:16:53.528Z,5.69
2019-02-07T16:19:20.766Z,5.62
2019-02-07T16:21:48.196Z,5.62
2019-02-07T16:24:16.030Z,5.31
2019-02-07T16:26:42.944Z,5.87
2019-02-07T16:29:10.329Z,5.31
2019-02-07T16:31:37.639Z,5.25
2019-02-07T16:34:05.277Z,5.44
2019-02-07T16:36:33.093Z,5.56
2019-02-07T16:39:01.628Z,5.62
2019-02-07T16:41:29.071Z,5.50
2019-02-07T16:43:56.693Z,5.44
2019-02-07T16:46:24.975Z,5.44
2019-02-07T16:48:52.321Z,5.06
2019-02-07T16:51:20.078Z,5.44
2019-02-07T16:53:47.484Z,5.12
2019-02-07T16:56:14.834Z,5.19
2019-02-07T16:58:42.068Z,5.12
2019-02-07T17:01:09.404Z,5.12
2019-02-07T17:03:36.387Z,5.19
2019-02-07T17:06:04.383Z,5.31
2019-02-07T17:08:31.357Z,5.06
2019-02-07T17:10:58.747Z,5.00
2019-02-07T17:13:26.100Z,5.25
2019-02-07T17:15:53.625Z,5.37
2019-02-07T17:18:20.949Z,5.25
2019-02-07T17:20:48.411Z,5.12
2019-02-07T17:23:15.742Z,5.12
2019-02-07T17:25:43.077Z,5.31
2019-02-07T17:28:10.399Z,5.31
2019-02-07T17:30:38.094Z,5.31
2019-02-07T17:33:05.190Z,5.37
2019-02-07T17:35:32.270Z,4.94
2019-02-07T17:53:06.905Z,5.12
2019-02-07T17:55:33.898Z,4.94
2019-02-07T17:58:01.375Z,5.19
2019-02-07T18:00:41.047Z,4.94
2019-02-07T18:03:08.060Z,4.81
2019-02-07T18:05:35.376Z,4.81
2019-02-07T18:08:05.431Z,4.81
2019-02-07T18:10:32.954Z,5.19
2019-02-07T18:13:00.370Z,4.94
2019-02-07T18:15:28.163Z,4.87
2019-02-07T18:17:55.612Z,4.94
2019-02-07T18:20:35.667Z,4.69
2019-02-07T18:26:10.694Z,4.94
2019-02-07T18:28:38.110Z,4.87
2019-02-07T18:31:29.990Z,4.69
2019-02-07T18:34:00.957Z,4.75
2019-02-07T18:36:28.115Z,4.94
2019-02-07T18:41:54.797Z,4.81
2019-02-07T18:44:22.807Z,4.69
2019-02-07T18:46:50.297Z,4.75
2019-02-07T18:49:17.709Z,4.75
2019-02-07T18:51:45.929Z,4.75
2019-02-07T18:54:12.599Z,4.75
2019-02-07T18:56:40.069Z,4.69
2019-02-07T18:59:08.494Z,4.81
2019-02-07T19:01:36.137Z,4.37
2019-02-07T19:04:04.115Z,5.12
2019-02-07T19:06:32.133Z,4.81
2019-02-07T19:08:59.779Z,4.62
2019-02-07T19:11:27.486Z,4.62
2019-02-07T19:13:55.034Z,4.62
2019-02-07T19:16:22.869Z,5.00
2019-02-07T19:18:50.208Z,5.00
2019-02-07T19:21:17.886Z,4.56
2019-02-07T19:23:45.367Z,4.44
2019-02-07T19:26:13.454Z,4.69
2019-02-07T19:28:40.161Z,4.44
2019-02-07T19:31:08.517Z,4.62
2019-02-07T19:33:36.238Z,4.62
2019-02-07T19:36:05.879Z,4.69
2019-02-07T19:38:33.578Z,4.50
2019-02-07T19:41:01.610Z,4.62
2019-02-07T19:43:30.124Z,4.69
2019-02-07T19:45:57.937Z,4.37
2019-02-07T19:48:25.655Z,4.56
2019-02-07T19:50:53.474Z,4.75
2019-02-07T19:53:21.568Z,5.00
2019-02-07T19:55:49.118Z,4.62
2019-02-07T19:58:16.750Z,4.81
2019-02-07T20:00:44.149Z,4.56
2019-02-07T20:03:12.752Z,4.62
2019-02-07T20:05:41.392Z,4.94
2019-02-07T20:08:09.043Z,4.56
2019-02-07T20:10:36.956Z,4.81
2019-02-07T20:13:04.048Z,4.94
2019-02-07T20:15:33.358Z,4.56
2019-02-07T20:18:00.537Z,4.50
2019-02-07T20:20:28.070Z,4.62
2019-02-07T20:22:55.181Z,4.50
2019-02-07T20:25:22.231Z,4.56
2019-02-07T20:27:49.310Z,4.56
2019-02-07T20:30:19.072Z,4.94
2019-02-07T20:32:46.236Z,4.62
2019-02-07T20:35:13.338Z,4.69
2019-02-07T20:37:41.562Z,5.00
2019-02-07T20:40:09.124Z,4.81
2019-02-07T20:42:36.258Z,4.75
2019-02-07T20:45:03.590Z,4.75
2019-02-07T20:47:30.732Z,4.75
2019-02-07T20:49:58.112Z,4.81
2019-02-07T20:52:27.324Z,4.62
2019-02-07T20:55:59.470Z,4.75
2019-02-07T20:58:27.692Z,4.62
2019-02-07T21:00:55.783Z,4.50
2019-02-07T21:03:24.706Z,4.56
2019-02-07T21:05:52.065Z,5.00
2019-02-07T21:08:19.142Z,4.87
2019-02-07T21:10:46.297Z,4.62
2019-02-07T21:13:13.363Z,4.75
2019-02-07T21:15:40.400Z,4.69
2019-02-07T21:18:07.529Z,4.62
2019-02-07T21:20:36.645Z,4.69
2019-02-07T21:23:02.302Z,4.31
2019-02-07T21:25:32.055Z,4.69
2019-02-07T21:27:59.128Z,4.69
2019-02-07T21:30:27.876Z,4.69
2019-02-07T21:32:55.218Z,4.56
2019-02-07T21:35:22.277Z,4.50
2019-02-07T21:37:49.344Z,4.62
2019-02-07T21:40:18.819Z,4.56
2019-02-07T21:42:46.735Z,4.69
2019-02-07T21:45:14.606Z,4.44
2019-02-07T21:47:41.855Z,4.37
2019-02-07T21:50:11.752Z,4.44
2019-02-07T21:52:42.022Z,4.31
2019-02-07T21:55:06.939Z,4.31
2019-02-07T21:57:34.069Z,4.69
2019-02-07T22:00:01.424Z,4.94
2019-02-07T22:02:28.509Z,4.62
2019-02-07T22:04:55.728Z,4.94
2019-02-07T22:07:23.873Z,4.94
2019-02-07T22:09:50.856Z,4.62
2019-02-07T22:12:18.098Z,4.81
2019-02-07T22:14:45.143Z,4.75
2019-02-07T22:17:12.198Z,4.75
2019-02-07T22:19:39.172Z,4.87
2019-02-07T22:22:06.252Z,4.94
2019-02-07T22:24:33.231Z,4.87
2019-02-07T22:27:00.498Z,4.69
2019-02-07T22:29:27.540Z,4.75
2019-02-07T22:31:54.565Z,4.81
2019-02-07T22:34:21.573Z,4.81
2019-02-07T22:36:48.545Z,4.81
2019-02-07T22:39:15.553Z,4.56
2019-02-07T22:41:42.811Z,4.94
2019-02-07T22:44:10.137Z,4.81
2019-02-07T22:46:37.345Z,4.87
2019-02-07T22:49:04.441Z,4.75
2019-02-07T22:51:31.443Z,4.62
2019-02-07T22:53:58.427Z,4.81
2019-02-07T22:56:25.423Z,4.62
2019-02-07T22:58:52.421Z,4.56
2019-02-07T23:01:31.294Z,4.62
2019-02-07T23:04:00.078Z,4.81
2019-02-07T23:06:27.800Z,4.87
2019-02-07T23:08:54.817Z,4.87
2019-02-07T23:11:21.802Z,4.87
2019-02-07T23:13:48.806Z,4.87
2019-02-07T23:16:15.850Z,4.87
2019-02-07T23:18:42.893Z,4.75
2019-02-07T23:21:09.962Z,4.94
2019-02-07T23:23:36.944Z,4.87
2019-02-07T23:26:05.055Z,5.00
2019-02-07T23:28:32.109Z,4.87
2019-02-07T23:30:59.097Z,4.69
2019-02-07T23:33:32.068Z,4.75
2019-02-07T23:36:09.633Z,4.94
2019-02-07T23:38:36.913Z,4.75
2019-02-07T23:43:46.044Z,4.75
2019-02-07T23:46:11.396Z,4.87
2019-02-07T23:48:38.367Z,4.56
2019-02-07T23:51:05.590Z,4.75
2019-02-07T23:53:32.603Z,4.56
2019-02-07T23:55:59.604Z,4.69
2019-02-07T23:58:26.776Z,4.75
